createdAt,value
2017-12-31T02:04:13.786Z,6.43
2017-12-31T02:06:44.763Z,8.07
2017-12-31T02:09:15.403Z,7.60
2017-12-31T02:11:46.794Z,9.60
2017-12-31T02:14:15.693Z,6.77
2017-12-31T02:16:45.463Z,7.73
2017-12-31T02:19:17.907Z,8.80
2017-12-31T02:21:46.221Z,8.80
2017-12-31T02:24:19.071Z,7.03
2017-12-31T02:26:49.304Z,8.17
2017-12-31T02:29:19.616Z,9.53
2017-12-31T02:31:54.114Z,8.67
2017-12-31T02:34:30.866Z,7.43
2017-12-31T02:37:00.886Z,8.43
2017-12-31T02:39:31.587Z,8.30
2017-12-31T02:42:01.504Z,9.00
2017-12-31T02:44:32.165Z,11.13
2017-12-31T02:47:14.154Z,10.00
2017-12-31T02:49:45.168Z,10.57
2017-12-31T02:52:14.616Z,8.47
2017-12-31T02:54:45.393Z,9.30
2017-12-31T02:57:15.108Z,10.83
2017-12-31T02:59:47.944Z,9.00
2017-12-31T03:02:16.957Z,9.90
2017-12-31T03:04:46.395Z,9.37
2017-12-31T03:07:15.279Z,11.13
2017-12-31T03:09:48.482Z,9.50
2017-12-31T03:12:31.214Z,11.40
2017-12-31T03:15:04.233Z,10.00
2017-12-31T03:17:32.337Z,11.17
2017-12-31T03:20:02.275Z,10.30
2017-12-31T03:25:26.290Z,12.20
2017-12-31T03:27:57.867Z,11.33
2017-12-31T03:30:29.261Z,11.77
2017-12-31T03:33:00.576Z,11.47
2017-12-31T03:35:31.855Z,8.70
2017-12-31T03:38:05.624Z,11.00
2017-12-31T03:40:37.505Z,12.80
2017-12-31T03:43:05.503Z,10.43
2017-12-31T03:45:38.899Z,12.03
2017-12-31T03:48:09.228Z,10.87
2017-12-31T03:50:43.630Z,10.40
2017-12-31T03:53:14.338Z,10.07
2017-12-31T03:55:48.250Z,11.47
2017-12-31T03:58:18.826Z,9.97
2017-12-31T04:00:52.934Z,8.90
2017-12-31T04:03:26.877Z,7.47
2017-12-31T04:05:57.426Z,8.50
2017-12-31T04:08:30.491Z,9.20
2017-12-31T04:11:00.960Z,7.90
2017-12-31T04:13:31.960Z,8.10
2017-12-31T04:16:02.697Z,7.63
2017-12-31T04:21:27.725Z,6.30
2017-12-31T04:24:04.580Z,6.83
2017-12-31T04:26:39.307Z,7.43
2017-12-31T04:29:10.575Z,10.37
2017-12-31T04:31:42.930Z,7.47
2017-12-31T04:34:19.315Z,7.07
2017-12-31T04:36:51.064Z,7.33
2017-12-31T04:39:23.751Z,8.00
2017-12-31T09:33:57.112Z,5.60
2017-12-31T09:39:04.254Z,5.13
2017-12-31T09:41:35.471Z,6.10
2017-12-31T09:44:10.480Z,5.10
2017-12-31T09:46:42.720Z,4.97
2017-12-31T09:51:52.061Z,5.40
2017-12-31T09:57:23.230Z,8.10
2017-12-31T10:00:06.239Z,6.03
2017-12-31T10:02:40.296Z,4.50
2017-12-31T10:05:13.495Z,5.10
2017-12-31T10:07:45.423Z,5.27
2017-12-31T10:20:30.678Z,4.47
2017-12-31T10:23:06.961Z,6.10
2017-12-31T10:25:42.878Z,4.03
2017-12-31T10:28:17.149Z,6.03
2017-12-31T10:30:50.836Z,5.50
2017-12-31T10:33:21.733Z,3.80
2017-12-31T10:35:56.718Z,4.10
2017-12-31T10:38:28.688Z,4.50
2017-12-31T10:41:01.296Z,4.80
2017-12-31T10:43:29.775Z,3.87
2017-12-31T10:46:22.793Z,5.20
2017-12-31T10:48:53.616Z,4.67
2017-12-31T10:51:24.399Z,5.63
2017-12-31T10:53:52.262Z,5.23
2017-12-31T10:56:21.287Z,6.23
2017-12-31T10:58:50.936Z,4.60
2017-12-31T11:01:18.668Z,5.50
2017-12-31T11:03:52.782Z,5.50
2017-12-31T11:06:38.926Z,7.07
2017-12-31T13:04:52.471Z,6.63
2017-12-31T13:07:37.864Z,7.30
2017-12-31T13:10:09.424Z,8.97
2017-12-31T13:12:38.189Z,7.40
2017-12-31T13:18:10.363Z,4.80
2017-12-31T13:26:05.653Z,5.53
2017-12-31T13:28:36.213Z,6.63
2017-12-31T13:31:04.065Z,5.20
2017-12-31T13:33:40.715Z,4.50
2017-12-31T13:36:12.725Z,5.20
2017-12-31T13:41:17.428Z,4.50
2017-12-31T13:43:46.932Z,5.73
2017-12-31T13:46:14.868Z,5.03
2017-12-31T13:48:43.837Z,4.57
2017-12-31T13:51:11.532Z,4.53
2017-12-31T13:53:39.808Z,4.70
2017-12-31T13:56:07.684Z,4.77
2017-12-31T13:58:37.683Z,5.30
2017-12-31T14:01:09.335Z,5.87
2017-12-31T14:03:37.893Z,5.30
2017-12-31T14:06:05.684Z,5.50
2017-12-31T14:08:35.351Z,5.33
2017-12-31T14:11:04.320Z,5.40
2017-12-31T14:13:32.136Z,6.47
2017-12-31T14:15:59.902Z,5.43
2017-12-31T14:18:29.146Z,6.17
2017-12-31T14:21:00.032Z,5.90
2017-12-31T14:23:29.214Z,6.00
2017-12-31T14:26:00.897Z,7.70
2017-12-31T14:28:28.643Z,6.50
2017-12-31T14:30:56.816Z,6.87
2017-12-31T14:33:25.254Z,7.60
2017-12-31T14:35:53.161Z,9.83
2017-12-31T14:38:23.113Z,9.90
2017-12-31T14:40:52.649Z,7.90
2017-12-31T14:43:22.039Z,7.83
2017-12-31T14:45:49.868Z,7.57
2017-12-31T14:48:19.076Z,8.13
2017-12-31T14:50:47.634Z,8.93
2017-12-31T14:53:15.600Z,9.80
2017-12-31T14:55:43.492Z,9.97
2017-12-31T14:58:12.086Z,8.03
2017-12-31T15:00:40.602Z,7.80
2017-12-31T15:03:08.483Z,9.60
2017-12-31T15:05:42.116Z,7.57
2017-12-31T15:08:09.941Z,11.30
2017-12-31T15:10:40.620Z,10.97
2017-12-31T15:13:09.434Z,7.10
2017-12-31T15:15:38.725Z,7.00
2017-12-31T15:18:07.574Z,8.67
2017-12-31T15:20:36.790Z,8.50
2017-12-31T15:23:04.505Z,7.23
2017-12-31T15:25:38.795Z,6.73
2017-12-31T15:28:07.464Z,7.27
2017-12-31T15:30:41.346Z,6.10
2017-12-31T15:33:09.084Z,7.33
2017-12-31T15:35:37.033Z,6.07
2017-12-31T15:38:05.035Z,6.27
2017-12-31T15:40:34.038Z,7.77
2017-12-31T15:43:03.058Z,6.53
2017-12-31T15:45:32.807Z,5.63
2017-12-31T15:48:09.805Z,7.83
2017-12-31T15:50:38.816Z,7.37
2017-12-31T15:53:06.658Z,8.40
2017-12-31T15:55:35.367Z,6.40
2017-12-31T15:58:03.719Z,7.10
2017-12-31T16:00:33.212Z,8.03
2017-12-31T16:03:06.067Z,9.10
2017-12-31T16:09:24.361Z,8.47
2017-12-31T16:11:53.368Z,11.87
2017-12-31T16:14:30.288Z,8.87
2017-12-31T16:16:59.859Z,10.97
2017-12-31T16:19:32.404Z,11.53
2017-12-31T16:22:02.307Z,9.27
2017-12-31T16:24:32.606Z,7.73
2017-12-31T16:27:05.308Z,9.17
2017-12-31T16:29:44.654Z,10.37
2017-12-31T16:38:18.259Z,20.10
2017-12-31T16:41:01.613Z,21.60
2017-12-31T16:43:39.907Z,19.53
2017-12-31T16:48:49.110Z,9.90
2017-12-31T16:51:29.086Z,10.53
2017-12-31T16:56:44.639Z,9.27
2017-12-31T17:05:13.205Z,9.83
2017-12-31T17:07:49.423Z,10.20
2017-12-31T17:10:22.178Z,10.73
2017-12-31T17:12:50.321Z,9.87
2017-12-31T17:15:19.874Z,11.50
2017-12-31T17:17:54.044Z,7.60
2017-12-31T17:23:13.312Z,4.90
2017-12-31T17:25:44.668Z,3.43
2017-12-31T17:28:15.401Z,3.50
2017-12-31T17:30:43.182Z,3.50
2017-12-31T17:33:11.753Z,4.60
2017-12-31T17:35:41.855Z,6.37
2017-12-31T17:38:09.639Z,6.87
2017-12-31T17:40:46.549Z,7.43
2017-12-31T17:43:14.290Z,9.17
2017-12-31T17:45:42.740Z,7.00
2017-12-31T17:48:13.019Z,7.77
2017-12-31T17:50:44.711Z,7.00
2017-12-31T17:53:14.133Z,8.87
2017-12-31T17:55:50.901Z,8.90
2017-12-31T17:58:32.865Z,9.60
2017-12-31T18:01:09.438Z,9.23
2017-12-31T18:03:52.612Z,10.10
2017-12-31T18:06:23.882Z,9.27
2017-12-31T18:08:54.612Z,12.80
2017-12-31T18:11:22.367Z,10.67
2017-12-31T18:13:50.124Z,14.20
2017-12-31T18:16:21.572Z,14.20
2017-12-31T18:18:54.331Z,14.70
2017-12-31T18:21:25.763Z,12.80
2017-12-31T18:23:59.852Z,11.70
2017-12-31T18:26:29.363Z,12.27
2017-12-31T18:28:59.724Z,17.50
2017-12-31T18:31:29.066Z,28.30
2017-12-31T18:34:04.754Z,26.13
2017-12-31T18:36:34.911Z,21.70
2017-12-31T18:39:04.287Z,16.63
2017-12-31T18:41:33.379Z,12.77
2017-12-31T19:17:36.727Z,11.70
2017-12-31T20:30:32.014Z,24.23
2017-12-31T20:33:02.246Z,59.03
2017-12-31T20:35:30.857Z,31.23
2017-12-31T20:52:15.714Z,23.33
2017-12-31T21:00:55.598Z,6.10
2017-12-31T21:03:42.943Z,7.90
2017-12-31T21:06:35.158Z,8.10
2017-12-31T21:10:52.143Z,12.30
2017-12-31T21:38:28.551Z,13.63
2017-12-31T21:41:03.448Z,12.60
2017-12-31T21:43:33.829Z,12.60
2017-12-31T21:46:05.491Z,9.93
2017-12-31T21:48:36.692Z,11.73
2017-12-31T21:51:05.596Z,11.67
2017-12-31T21:56:31.681Z,15.03
2017-12-31T22:04:37.604Z,14.00
2017-12-31T22:07:14.332Z,15.20
2017-12-31T22:09:42.148Z,17.57
2017-12-31T22:12:09.968Z,26.50
2017-12-31T22:14:39.594Z,10.43
2017-12-31T22:26:29.532Z,5.60
2017-12-31T22:31:49.922Z,6.00
2017-12-31T22:34:30.106Z,9.30
2017-12-31T22:37:05.679Z,7.70
2017-12-31T22:39:44.084Z,8.20
2017-12-31T22:42:12.099Z,7.77
2017-12-31T22:44:42.974Z,8.50
2017-12-31T22:47:11.933Z,7.80
2017-12-31T22:49:44.863Z,9.47
2017-12-31T22:52:18.235Z,9.13
2017-12-31T22:57:19.514Z,12.53
2017-12-31T22:59:51.715Z,19.03
2017-12-31T23:02:19.697Z,19.27
2017-12-31T23:04:56.714Z,14.57
2017-12-31T23:07:29.553Z,17.90
2017-12-31T23:10:05.286Z,13.67
2017-12-31T23:12:35.917Z,26.83
2017-12-31T23:21:11.536Z,219.97
2017-12-31T23:23:44.486Z,269.20
2017-12-31T23:26:13.313Z,134.07
2017-12-31T23:28:41.112Z,47.60
2017-12-31T23:31:08.804Z,38.40
2017-12-31T23:33:37.197Z,33.53
2017-12-31T23:36:08.687Z,35.70
2017-12-31T23:38:40.430Z,31.10
2017-12-31T23:41:10.018Z,34.97
2017-12-31T23:43:42.079Z,30.40
2017-12-31T23:46:11.067Z,29.10
2017-12-31T23:48:47.686Z,34.30
2017-12-31T23:53:51.393Z,26.30
